Rensselaer Falls, New York
Current Conditions -  °F | °C
As of 11:53 PM on Sunday 19 Oct 2014 (Local Time) from KMSS Reporting Station
Clear Clear  
Wind Chill: 24°   Ceiling: Unl
Heat Index: 31°   Visibility: 10mi
Dew Point: 27°   Wind: 7mph
Humidity: 85%   Direction: 220°SW
Pressure: 30.01"   Gusts: NA
Location:  44.59°N, 75.32°W
Report Text: KMSS 200353Z AUTO 22006KT 10SM CLR M01/M03 A3001 RMK AO2 SLP167 T10061028
Loading
Personal Weather Stations






























Interactive Weather Map
Tropical Storm Tracking
New forecast layout! Learn more

10-Day Weather Forecast

Advertisements
Track Severe Weather on mobile